Time;durP1;ratioP1;P1;durP2;ratioP2;P2;SDS_P1;SDS_P2;PMS_P1;PMS_P2;Temp;Humidity;BMP_temperature;BMP_pressure;BME280_temperature;BME280_humidity;BME280_pressure;Samples;Min_cycle;Max_cycle;Signal;HPM_P1;HPM_P2
2023/02/26 00:01:28;;;;;;;7.70;2.43;;;;;;;0.25;97.78;101851.13;5069772;28;20048;-36
2023/02/26 00:03:59;;;;;;;11.15;2.83;;;;;;;0.33;96.98;101863.72;5070049;28;20024;-36
2023/02/26 00:06:25;;;;;;;5.85;2.00;;;;;;;0.38;97.53;101872.13;5070054;28;20012;-36
2023/02/26 00:08:51;;;;;;;5.63;2.13;;;;;;;0.37;97.08;101867.81;5069697;28;20070;-35
2023/02/26 00:11:17;;;;;;;4.88;2.15;;;;;;;0.45;98.33;101879.44;5069461;28;20515;-35
2023/02/26 00:13:44;;;;;;;7.80;2.90;;;;;;;0.50;97.99;101871.03;5059533;28;20025;-36
2023/02/26 00:16:23;;;;;;;5.00;2.17;;;;;;;0.62;99.92;101879.72;5056648;28;20035;-35
2023/02/26 00:18:48;;;;;;;6.00;2.20;;;;;;;0.61;99.96;101878.03;5056594;28;20023;-35
2023/02/26 00:21:17;;;;;;;5.43;2.33;;;;;;;0.61;99.58;101886.84;5056248;28;20431;-35
2023/02/26 00:23:42;;;;;;;7.68;2.50;;;;;;;0.61;98.15;101876.22;5056519;28;20020;-34
2023/02/26 00:26:09;;;;;;;4.35;1.98;;;;;;;0.62;99.56;101872.56;5056835;28;20035;-35
2023/02/26 00:28:34;;;;;;;;;;;;;;;0.76;98.22;101888.09;5056861;28;20060;-36
2023/02/26 00:31:00;;;;;;;6.40;2.58;;;;;;;0.65;97.89;101876.78;5056682;28;19955;-35
2023/02/26 00:33:25;;;;;;;5.85;2.38;;;;;;;0.76;98.75;101892.59;5056622;28;20108;-35
2023/02/26 00:35:55;;;;;;;7.60;2.40;;;;;;;0.75;99.01;101894.41;5056881;28;20485;-36
2023/02/26 00:38:21;;;;;;;7.63;2.35;;;;;;;0.84;100.00;101905.22;5056202;28;20040;-35
2023/02/26 00:40:48;;;;;;;;;;;;;;;0.87;98.59;101902.25;5056546;28;20047;-36
2023/02/26 00:43:21;;;;;;;7.30;2.28;;;;;;;0.76;98.14;101903.25;5055600;28;20370;-34
2023/02/26 00:46:21;;;;;;;5.68;2.45;;;;;;;0.81;98.32;101908.16;5055861;28;20032;-36
2023/02/26 00:48:55;;;;;;;7.20;2.28;;;;;;;0.83;99.93;101909.69;5046554;28;20037;-35
2023/02/26 00:51:46;;;;;;;6.88;1.90;;;;;;;0.73;98.13;101911.50;5056322;28;20028;-36
2023/02/26 00:54:22;;;;;;;4.78;2.20;;;;;;;0.70;99.45;101915.31;5044903;28;20071;-36
2023/02/26 00:56:48;;;;;;;4.63;2.13;;;;;;;0.66;98.69;101918.38;5056018;28;20028;-36
2023/02/26 00:59:15;;;;;;;8.80;2.50;;;;;;;0.63;98.42;101914.16;5055299;28;20338;-36
2023/02/26 01:01:40;;;;;;;9.32;2.75;;;;;;;0.56;98.72;101929.03;5055511;28;20118;-36
2023/02/26 01:04:07;;;;;;;6.00;1.98;;;;;;;0.59;100.00;101925.25;5056332;28;20028;-36
2023/02/26 01:06:33;;;;;;;;;;;;;;;0.65;99.06;101927.34;5056452;28;20364;-36
2023/02/26 01:09:27;;;;;;;4.35;1.83;;;;;;;0.52;100.00;101933.78;5055900;28;19996;-36
2023/02/26 01:11:55;;;;;;;7.03;2.05;;;;;;;0.48;100.00;101931.53;5056159;28;20032;-36
2023/02/26 01:14:20;;;;;;;5.50;2.50;;;;;;;0.43;100.00;101933.75;5055639;28;20360;-36
2023/02/26 01:17:12;;;;;;;12.80;3.42;;;;;;;0.37;100.00;101931.66;5055281;28;20029;-36
2023/02/26 01:19:44;;;;;;;4.20;1.80;;;;;;;0.33;100.00;101930.25;5055463;28;20016;-36
2023/02/26 01:22:16;;;;;;;8.20;2.88;;;;;;;0.30;100.00;101935.88;5055354;28;20036;-36
2023/02/26 01:24:41;;;;;;;6.28;2.05;;;;;;;0.27;100.00;101933.47;5053756;28;20412;-36
2023/02/26 01:27:07;;;;;;;6.15;2.20;;;;;;;0.24;100.00;101930.13;5053823;28;20167;-36
2023/02/26 01:29:32;;;;;;;9.60;2.75;;;;;;;0.21;100.00;101919.75;5055088;28;20017;-36
2023/02/26 01:32:29;;;;;;;5.17;2.23;;;;;;;0.24;100.00;101924.78;5054957;28;20025;-36
2023/02/26 01:35:18;;;;;;;7.90;1.90;;;;;;;0.21;100.00;101929.53;5054452;28;20032;-36
2023/02/26 01:37:56;;;;;;;6.75;1.98;;;;;;;0.22;100.00;101934.72;5054922;28;20017;-36
2023/02/26 01:40:50;;;;;;;6.43;1.95;;;;;;;0.19;100.00;101932.31;5054499;28;20481;-36
2023/02/26 01:43:23;;;;;;;4.43;1.90;;;;;;;0.15;100.00;101938.06;5054770;28;20465;-36
2023/02/26 01:46:02;;;;;;;5.82;2.00;;;;;;;0.16;100.00;101948.56;5054404;28;20021;-36
2023/02/26 01:48:37;;;;;;;6.45;2.00;;;;;;;0.03;100.00;101923.19;5054925;28;20025;-36
2023/02/26 01:51:03;;;;;;;7.15;1.95;;;;;;;0.11;100.00;101956.13;5054296;28;20108;-36
2023/02/26 01:53:28;;;;;;;;;;;;;;;0.17;100.00;101960.88;5054946;28;20025;-36
2023/02/26 01:56:05;;;;;;;5.78;1.88;;;;;;;-0.09;100.00;101935.75;5054289;28;20257;-36
2023/02/26 01:58:35;;;;;;;9.63;2.92;;;;;;;0.01;100.00;101965.03;5055013;28;20020;-36
2023/02/26 02:01:01;;;;;;;10.25;2.78;;;;;;;-0.07;100.00;101966.53;5054093;28;20074;-36
2023/02/26 02:03:28;;;;;;;3.28;1.83;;;;;;;-0.12;100.00;101975.91;5054405;28;20448;-36
2023/02/26 02:06:01;;;;;;;3.92;1.83;;;;;;;-0.17;100.00;101976.31;5054436;28;20373;-36
2023/02/26 02:08:27;;;;;;;5.90;1.85;;;;;;;-0.33;100.00;101955.53;5054252;28;20064;-36
2023/02/26 02:10:53;;;;;;;4.32;2.20;;;;;;;-0.16;100.00;101975.31;5053984;28;20021;-36
2023/02/26 02:13:29;;;;;;;3.70;1.85;;;;;;;-0.17;100.00;101973.63;5053964;28;20021;-36
2023/02/26 02:16:20;;;;;;;5.88;1.83;;;;;;;-0.17;100.00;101978.13;5054724;28;20104;-36
2023/02/26 02:18:57;;;;;;;5.95;1.70;;;;;;;-0.27;100.00;101972.75;5054944;28;20372;-36
2023/02/26 02:21:41;;;;;;;5.60;2.08;;;;;;;-0.22;100.00;101996.28;5054546;28;20033;-36
2023/02/26 02:24:06;;;;;;;3.83;1.50;;;;;;;-0.27;100.00;101994.03;5054568;28;20078;-36
2023/02/26 02:27:07;;;;;;;8.47;1.60;;;;;;;-0.24;100.00;101990.25;5054309;28;20449;-36
2023/02/26 02:29:49;;;;;;;3.67;1.55;;;;;;;-0.34;100.00;101985.75;5053905;28;20100;-36
2023/02/26 02:32:24;;;;;;;4.38;1.75;;;;;;;-0.21;100.00;102000.63;5054393;28;20029;-36
2023/02/26 02:35:02;;;;;;;4.22;1.50;;;;;;;-0.33;99.28;102005.19;5053530;28;20479;-36
2023/02/26 02:37:40;;;;;;;3.72;1.60;;;;;;;-0.33;99.50;101999.88;5053542;28;20032;-36
2023/02/26 02:40:14;;;;;;;5.00;2.00;;;;;;;-0.42;99.31;101993.53;5054080;28;20028;-36
2023/02/26 02:42:54;;;;;;;5.85;2.20;;;;;;;-0.37;98.53;102015.22;5053915;28;20107;-36
2023/02/26 02:45:44;;;;;;;5.88;1.58;;;;;;;-0.37;100.00;102014.41;5053664;28;20461;-36
2023/02/26 02:48:16;;;;;;;4.45;1.70;;;;;;;-0.48;99.45;102006.50;5053907;28;20028;-36
2023/02/26 02:50:51;;;;;;;6.35;1.75;;;;;;;-0.40;99.92;102014.66;5053703;28;20064;-36
2023/02/26 02:53:22;;;;;;;3.13;1.00;;;;;;;-0.45;99.74;102015.03;5053937;28;20075;-36
2023/02/26 02:55:55;;;;;;;4.90;1.73;;;;;;;-0.45;99.04;102024.81;5053597;28;20040;-36
2023/02/26 02:58:27;;;;;;;6.70;1.70;;;;;;;-0.45;100.00;102023.00;5053575;28;20021;-36
2023/02/26 03:00:56;;;;;;;5.90;1.45;;;;;;;-0.46;99.64;102023.97;5053483;28;20024;-36
2023/02/26 03:03:35;;;;;;;6.10;1.70;;;;;;;-0.52;99.55;102027.16;5054758;28;20393;-36
2023/02/26 03:06:00;;;;;;;5.40;1.50;;;;;;;-0.53;100.00;102029.00;5054050;28;20041;-36
2023/02/26 03:08:30;;;;;;;4.93;1.50;;;;;;;-0.52;100.00;102030.66;5053468;28;20150;-36
2023/02/26 03:10:56;;;;;;;3.50;1.30;;;;;;;-0.48;100.00;102039.22;5053730;28;20025;-36
2023/02/26 03:13:24;;;;;;;3.88;1.27;;;;;;;-0.52;100.00;102028.00;5053136;28;20017;-36
2023/02/26 03:16:25;;;;;;;3.40;1.63;;;;;;;-0.52;100.00;102038.63;5053711;28;20507;-36
2023/02/26 03:19:09;;;;;;;5.78;2.00;;;;;;;-0.56;100.00;102049.66;5053362;28;20021;-36
2023/02/26 03:21:49;;;;;;;5.43;1.92;;;;;;;-0.67;100.00;102050.56;5053843;28;20056;-36
2023/02/26 03:24:56;;;;;;;6.78;1.83;;;;;;;-0.64;100.00;102054.75;5053644;28;20033;-36
2023/02/26 03:27:37;;;;;;;4.22;1.50;;;;;;;-0.61;100.00;102055.34;5040560;28;20040;-36
2023/02/26 03:30:05;;;;;;;4.80;1.38;;;;;;;-0.74;100.00;102052.03;5052769;28;20079;-36
2023/02/26 03:32:49;;;;;;;3.78;1.48;;;;;;;-0.72;100.00;102063.38;5052957;28;20040;-36
2023/02/26 03:35:21;;;;;;;4.68;1.40;;;;;;;-0.77;100.00;102067.41;5054099;28;20021;-36
2023/02/26 03:37:50;;;;;;;5.75;1.67;;;;;;;-0.79;100.00;102072.81;5053179;28;20456;-36
2023/02/26 03:40:36;;;;;;;3.65;1.30;;;;;;;-0.77;100.00;102070.88;5053535;28;20016;-36
2023/02/26 03:43:31;;;;;;;5.60;1.38;;;;;;;-0.83;99.52;102079.34;5052873;28;20033;-36
2023/02/26 03:46:00;;;;;;;3.30;1.52;;;;;;;-0.86;99.18;102083.09;5049588;28;20163;-36
2023/02/26 03:48:29;;;;;;;4.93;1.80;;;;;;;-0.85;100.00;102089.25;5054720;28;20035;-36
2023/02/26 03:50:59;;;;;;;3.38;1.58;;;;;;;-0.76;100.00;102085.84;5056953;28;20029;-36
2023/02/26 03:53:29;;;;;;;6.25;1.48;;;;;;;-0.98;100.00;102062.03;5057162;28;20408;-36
2023/02/26 03:56:02;;;;;;;5.15;1.95;;;;;;;-0.90;99.48;102086.97;5056755;28;20453;-36
2023/02/26 03:58:27;;;;;;;4.55;2.10;;;;;;;-0.97;99.39;102091.13;5056786;28;20028;-36
2023/02/26 04:01:05;;;;;;;4.43;1.67;;;;;;;-0.96;99.52;102098.13;5056423;28;20025;-36
2023/02/26 04:03:46;;;;;;;4.07;1.65;;;;;;;-0.92;100.00;102093.41;5056887;28;20037;-36
2023/02/26 04:06:12;;;;;;;4.20;1.50;;;;;;;-1.02;100.00;102089.78;5056613;28;20029;-36
2023/02/26 04:08:39;;;;;;;5.32;1.30;;;;;;;-1.03;99.06;102107.53;5056799;28;20025;-36
2023/02/26 04:11:16;;;;;;;5.45;1.40;;;;;;;-1.13;98.56;102107.44;5056558;28;20104;-36
2023/02/26 04:13:41;;;;;;;7.60;1.83;;;;;;;-1.23;98.98;102097.69;5056735;28;20361;-36
2023/02/26 04:16:07;;;;;;;6.00;1.48;;;;;;;-1.22;100.00;102092.28;5056420;28;20029;-36
2023/02/26 04:18:32;;;;;;;4.20;1.50;;;;;;;-1.20;99.31;102111.56;5056675;28;20021;-36
2023/02/26 04:20:57;;;;;;;3.63;1.33;;;;;;;-1.38;98.23;102084.69;5056587;28;20024;-36
2023/02/26 04:23:23;;;;;;;4.90;1.73;;;;;;;-1.26;97.00;102119.19;5055613;28;20334;-36
2023/02/26 04:25:48;;;;;;;5.93;1.40;;;;;;;-1.20;99.13;102122.19;5055985;28;20040;-36
2023/02/26 04:28:14;;;;;;;3.43;1.20;;;;;;;-1.24;100.00;102119.91;5056219;28;20056;-36
2023/02/26 04:30:39;;;;;;;2.90;1.20;;;;;;;-1.37;99.67;102096.97;5056135;28;20368;-36
2023/02/26 04:33:04;;;;;;;5.33;1.37;;;;;;;-1.20;99.11;102127.50;5055804;28;20020;-36
2023/02/26 04:35:30;;;;;;;5.67;1.53;;;;;;;-1.14;100.00;102136.75;5056077;28;20025;-36
2023/02/26 04:37:55;;;;;;;8.13;1.50;;;;;;;-1.35;97.56;102124.25;5055753;28;20026;-36
2023/02/26 04:40:22;;;;;;;4.67;1.20;;;;;;;-1.23;99.82;102142.81;5055753;28;20028;-36
2023/02/26 04:42:48;;;;;;;2.63;1.55;;;;;;;-1.29;98.31;102133.53;5055771;28;20021;-36
2023/02/26 04:45:13;;;;;;;4.20;1.40;;;;;;;-1.31;98.36;102138.13;5056770;28;20112;-36
2023/02/26 04:47:39;;;;;;;4.97;1.10;;;;;;;-1.32;99.11;102145.25;5055487;28;20032;-36
2023/02/26 04:50:04;;;;;;;3.33;1.20;;;;;;;-1.32;98.46;102145.25;5056069;28;20021;-36
2023/02/26 04:52:30;;;;;;;2.55;1.10;;;;;;;-1.33;98.96;102142.69;5056231;28;20029;-36
2023/02/26 04:54:55;;;;;;;5.80;1.23;;;;;;;-1.40;97.47;102147.66;5055457;28;20051;-36
2023/02/26 04:57:21;;;;;;;4.60;1.40;;;;;;;-1.35;98.22;102156.09;5055985;28;20104;-36
2023/02/26 04:59:46;;;;;;;2.63;0.97;;;;;;;-1.33;99.02;102163.94;5056116;28;20021;-36
2023/02/26 05:02:11;;;;;;;6.57;1.30;;;;;;;-1.34;99.52;102168.38;5056036;28;20053;-36
2023/02/26 05:04:37;;;;;;;4.50;1.50;;;;;;;-1.31;100.00;102173.47;5055285;28;20028;-36
2023/02/26 05:07:02;;;;;;;2.57;0.87;;;;;;;-1.27;100.00;102166.09;5055730;28;20021;-36
2023/02/26 05:09:27;;;;;;;3.97;1.10;;;;;;;-1.37;99.22;102173.09;5055383;28;20055;-36
2023/02/26 05:11:53;;;;;;;4.13;1.00;;;;;;;-1.41;98.52;102179.63;5055270;28;20020;-36
2023/02/26 05:14:18;;;;;;;4.23;1.37;;;;;;;-1.45;100.00;102160.44;5055023;28;20108;-36
2023/02/26 05:16:44;;;;;;;2.60;0.90;;;;;;;-1.37;100.00;102176.59;5056043;28;20021;-36
2023/02/26 05:19:09;;;;;;;2.67;1.00;;;;;;;-1.36;100.00;102178.28;5056011;28;20047;-36
2023/02/26 05:21:34;;;;;;;3.17;1.20;;;;;;;-1.41;100.00;102176.97;5055317;28;20056;-36
2023/02/26 05:24:00;;;;;;;5.27;1.23;;;;;;;-1.49;99.07;102185.53;5055176;28;20020;-36
2023/02/26 05:26:25;;;;;;;4.53;1.27;;;;;;;-1.57;98.61;102187.91;5055794;28;20019;-36
2023/02/26 05:28:51;;;;;;;5.27;1.30;;;;;;;-1.68;97.35;102185.25;5055114;28;20055;-36
2023/02/26 05:31:16;;;;;;;2.90;1.30;;;;;;;-1.65;99.39;102188.53;5055897;28;20036;-36
2023/02/26 05:33:42;;;;;;;4.45;1.00;;;;;;;-1.65;98.19;102190.34;5055242;28;20103;-36
2023/02/26 05:36:08;;;;;;;4.53;1.17;;;;;;;-1.67;97.32;102197.53;5054922;28;20028;-36
2023/02/26 05:38:33;;;;;;;3.40;1.05;;;;;;;-1.66;98.02;102191.28;5054493;28;20017;-36
2023/02/26 05:40:59;;;;;;;4.55;1.10;;;;;;;-1.74;97.52;102193.69;5055055;28;20029;-36
2023/02/26 05:43:25;;;;;;;5.13;1.55;;;;;;;-1.97;96.40;102168.94;5054785;28;20039;-36
2023/02/26 05:45:51;;;;;;;4.35;1.02;;;;;;;-1.77;97.29;102194.75;5054794;28;20036;-36
2023/02/26 05:48:17;;;;;;;5.32;1.42;;;;;;;-1.90;95.40;102205.47;5054724;28;20021;-36
2023/02/26 05:50:42;;;;;;;6.40;1.33;;;;;;;-1.82;96.48;102216.31;5054460;28;20056;-36
2023/02/26 05:53:08;;;;;;;3.30;1.07;;;;;;;-1.86;95.74;102217.50;5054309;28;20025;-36
2023/02/26 05:55:33;;;;;;;4.67;1.10;;;;;;;-1.84;95.50;102207.66;5054392;28;20021;-36
2023/02/26 05:57:59;;;;;;;3.03;1.00;;;;;;;-1.85;95.53;102221.88;5054475;28;20456;-36
2023/02/26 06:00:25;;;;;;;3.90;1.13;;;;;;;-1.83;95.76;102221.75;5054750;28;20021;-36
2023/02/26 06:02:50;;;;;;;5.03;1.10;;;;;;;-1.92;94.60;102214.50;5054590;28;20049;-36
2023/02/26 06:05:16;;;;;;;3.70;1.17;;;;;;;-1.91;94.52;102217.00;5054392;28;20036;-36
2023/02/26 06:07:41;;;;;;;3.78;1.00;;;;;;;-1.85;96.21;102215.72;5054319;28;20029;-36
2023/02/26 06:10:08;;;;;;;4.30;1.10;;;;;;;-1.77;95.69;102236.34;5054583;28;20021;-36
2023/02/26 06:12:34;;;;;;;6.18;1.48;;;;;;;-1.79;94.01;102230.31;5053646;28;20067;-36
2023/02/26 06:15:00;;;;;;;4.63;1.42;;;;;;;-1.74;95.17;102233.47;5054806;28;20059;-36
2023/02/26 06:17:25;;;;;;;3.30;1.30;;;;;;;-1.80;93.89;102244.56;5054203;28;20099;-36
2023/02/26 06:19:51;;;;;;;2.35;1.10;;;;;;;-1.81;93.41;102241.03;5053857;28;20021;-36
2023/02/26 06:22:16;;;;;;;3.57;0.83;;;;;;;-1.83;93.66;102240.31;5054071;28;20112;-36
2023/02/26 06:24:42;;;;;;;6.07;1.00;;;;;;;-1.87;93.08;102255.59;5054645;28;20357;-36
2023/02/26 06:27:07;;;;;;;4.53;1.17;;;;;;;-1.86;92.44;102261.75;5053927;28;20115;-36
2023/02/26 06:29:33;;;;;;;3.00;0.90;;;;;;;-1.87;93.38;102255.59;5053717;28;20029;-37
2023/02/26 06:31:58;;;;;;;6.65;1.38;;;;;;;-1.91;92.13;102270.03;5053845;28;20028;-36
2023/02/26 06:34:24;;;;;;;2.20;0.80;;;;;;;-1.90;92.24;102266.47;5054187;28;20369;-35
2023/02/26 06:36:49;;;;;;;5.27;1.30;;;;;;;-1.85;92.99;102269.59;5053619;28;20100;-35
2023/02/26 06:39:15;;;;;;;2.77;1.00;;;;;;;-1.83;92.12;102278.28;5053910;28;20448;-36
2023/02/26 06:41:40;;;;;;;3.97;0.93;;;;;;;-1.83;91.82;102283.59;5052477;28;20121;-35
2023/02/26 06:44:06;;;;;;;3.00;1.00;;;;;;;-1.83;91.98;102283.59;5054372;28;20028;-36
2023/02/26 06:46:31;;;;;;;4.20;1.52;;;;;;;-1.90;91.89;102276.22;5053721;28;20437;-36
2023/02/26 06:48:57;;;;;;;5.10;1.33;;;;;;;-1.84;92.03;102286.34;5053971;28;20029;-37
2023/02/26 06:51:22;;;;;;;3.40;0.87;;;;;;;-1.81;91.79;102302.03;5054307;28;20108;-36
2023/02/26 06:53:48;;;;;;;2.83;1.00;;;;;;;-1.75;91.46;102308.69;5053330;28;20083;-36
2023/02/26 06:56:13;;;;;;;3.93;1.20;;;;;;;-1.74;91.38;102307.72;5053937;28;20021;-35
2023/02/26 06:58:39;;;;;;;4.05;1.00;;;;;;;-1.69;92.31;102310.88;5053608;28;20653;-35
2023/02/26 07:01:04;;;;;;;2.60;1.00;;;;;;;-1.78;91.71;102307.09;5054091;28;20036;-37
2023/02/26 07:03:30;;;;;;;5.60;1.20;;;;;;;-1.81;91.65;102320.59;5054682;28;20087;-38
2023/02/26 07:05:55;;;;;;;16.35;2.95;;;;;;;-1.82;91.23;102316.25;5054138;28;20132;-37
2023/02/26 07:08:21;;;;;;;3.47;0.82;;;;;;;-1.65;91.76;102338.88;5053214;28;20503;-35
2023/02/26 07:10:48;;;;;;;3.50;0.87;;;;;;;-1.61;90.83;102338.53;5053567;28;20068;-35
2023/02/26 07:13:14;;;;;;;4.70;1.17;;;;;;;-1.47;95.00;102341.94;5053441;28;20032;-35
2023/02/26 07:15:39;;;;;;;5.30;1.40;;;;;;;-1.47;92.71;102348.09;5054327;28;20021;-36
2023/02/26 07:18:05;;;;;;;3.75;1.00;;;;;;;-1.45;91.45;102354.13;5053969;28;20368;-36
2023/02/26 07:20:31;;;;;;;2.73;0.90;;;;;;;-1.43;91.14;102349.53;5053701;28;20017;-35
2023/02/26 07:22:57;;;;;;;2.92;0.90;;;;;;;-1.44;90.28;102350.50;5054773;28;20044;-35
2023/02/26 07:25:23;;;;;;;3.08;0.98;;;;;;;-1.37;90.69;102365.00;5057414;28;20021;-34
2023/02/26 07:27:49;;;;;;;2.67;1.00;;;;;;;-1.31;90.52;102375.16;5057606;28;20100;-36
2023/02/26 07:30:14;;;;;;;2.60;0.90;;;;;;;-1.31;89.87;102377.81;5057056;28;20096;-34
2023/02/26 07:32:40;;;;;;;4.55;1.02;;;;;;;-1.20;90.78;102387.63;5057207;28;20032;-34
2023/02/26 07:35:05;;;;;;;5.93;2.00;;;;;;;-1.15;89.13;102379.31;5057241;28;20021;-35
2023/02/26 07:37:31;;;;;;;3.42;1.02;;;;;;;-1.09;89.24;102384.16;5057695;28;20070;-35
2023/02/26 07:39:56;;;;;;;2.67;0.90;;;;;;;-1.02;89.93;102393.34;5057669;28;20453;-35
2023/02/26 07:42:22;;;;;;;3.07;0.80;;;;;;;-0.94;89.76;102392.75;5057473;28;20739;-35
2023/02/26 07:44:47;;;;;;;4.17;0.97;;;;;;;-0.91;88.61;102401.31;5056774;28;20025;-36
2023/02/26 07:47:13;;;;;;;4.28;1.08;;;;;;;-0.84;nan;102399.03;5057011;28;20021;-36
2023/02/26 07:49:39;;;;;;;3.13;0.90;;;;;;;-0.79;89.00;102399.53;5057780;28;20445;-36
2023/02/26 07:52:06;;;;;;;4.05;1.33;;;;;;;-0.74;89.38;102402.66;5056620;28;20029;-36
2023/02/26 07:54:32;;;;;;;3.15;0.65;;;;;;;-0.71;88.72;102390.97;5057139;28;20033;-36
2023/02/26 07:56:58;;;;;;;2.78;0.77;;;;;;;-0.72;87.81;102397.25;5056782;28;20020;-36
2023/02/26 07:59:23;;;;;;;6.30;1.50;;;;;;;-0.60;88.17;102412.22;5057067;28;20025;-36
2023/02/26 08:01:48;;;;;;;1.90;0.90;;;;;;;-0.56;88.54;102413.69;5056275;28;20029;-36
2023/02/26 08:04:14;;;;;;;5.00;1.10;;;;;;;-0.47;88.66;102410.31;5057275;28;20067;-36
2023/02/26 08:06:39;;;;;;;4.55;1.10;;;;;;;-0.36;87.93;102409.44;5056684;28;20035;-36
2023/02/26 08:09:05;;;;;;;5.13;1.17;;;;;;;-0.30;87.92;102412.47;5056685;28;20025;-36
2023/02/26 08:11:32;;;;;;;6.50;1.10;;;;;;;-0.23;87.81;102410.19;5057132;28;20053;-36
2023/02/26 08:13:58;;;;;;;2.85;0.90;;;;;;;-0.18;86.53;102417.78;5056983;28;20059;-36
2023/02/26 08:16:24;;;;;;;2.27;0.90;;;;;;;-0.17;87.43;102415.00;5057008;28;20017;-36
2023/02/26 08:18:49;;;;;;;2.67;0.98;;;;;;;-0.11;86.59;102419.81;5056048;28;20108;-36
2023/02/26 08:21:14;;;;;;;4.30;0.97;;;;;;;-0.05;86.45;102419.34;5056855;28;20117;-36
2023/02/26 08:23:40;;;;;;;5.77;1.20;;;;;;;-0.12;84.96;102412.81;5056265;28;20035;-36
2023/02/26 08:26:08;;;;;;;4.87;1.03;;;;;;;0.08;87.13;102437.81;5056334;28;20248;-36
2023/02/26 08:28:33;;;;;;;4.68;1.08;;;;;;;0.17;87.18;102434.41;5055824;28;20461;-36
2023/02/26 08:31:00;;;;;;;5.78;1.60;;;;;;;0.23;85.92;102438.38;5055972;28;20032;-35
2023/02/26 08:33:26;;;;;;;3.88;1.20;;;;;;;0.22;84.96;102450.84;5055692;28;20033;-35
2023/02/26 08:35:52;;;;;;;3.15;0.90;;;;;;;0.28;86.39;102433.53;5055832;28;20514;-36
2023/02/26 08:38:18;;;;;;;;;;;;;;;0.45;85.97;102448.16;5056723;28;20104;-36
2023/02/26 08:40:43;;;;;;;4.10;1.00;;;;;;;0.42;84.04;102456.38;5056289;28;19947;-36
2023/02/26 08:43:10;;;;;;;1.67;0.87;;;;;;;0.52;85.47;102450.16;5055884;28;20033;-36
2023/02/26 08:45:36;;;;;;;5.40;1.40;;;;;;;0.58;84.62;102459.44;5056474;28;20122;-35
2023/02/26 08:48:01;;;;;;;2.33;0.88;;;;;;;0.70;85.53;102458.47;5055514;28;20056;-35
2023/02/26 08:50:27;;;;;;;2.53;0.97;;;;;;;0.72;85.40;102450.31;5056179;28;20053;-35
2023/02/26 08:52:52;;;;;;;3.35;0.85;;;;;;;0.81;83.53;102459.38;5055780;28;20029;-35
2023/02/26 08:55:17;;;;;;;2.73;0.90;;;;;;;0.85;84.02;102466.16;5055760;28;20116;-36
2023/02/26 08:57:43;;;;;;;5.10;1.10;;;;;;;0.86;82.82;102474.00;5055687;28;20040;-36
2023/02/26 09:00:09;;;;;;;2.20;0.80;;;;;;;0.90;83.77;102463.94;5056516;28;20429;-35
2023/02/26 09:02:38;;;;;;;5.03;1.15;;;;;;;1.05;83.78;102480.47;5055615;28;20469;-36
2023/02/26 09:05:04;;;;;;;5.35;1.20;;;;;;;1.13;83.79;102473.53;5056107;28;20052;-35
2023/02/26 09:07:29;;;;;;;4.47;0.70;;;;;;;1.11;81.68;102464.78;5055822;28;20025;-35
2023/02/26 09:09:55;;;;;;;1.87;0.80;;;;;;;1.11;80.43;102483.44;5056317;28;20025;-35
2023/02/26 09:12:20;;;;;;;4.23;1.07;;;;;;;1.28;81.79;102493.53;5055472;28;20105;-35
2023/02/26 09:14:46;;;;;;;2.70;1.00;;;;;;;1.36;81.37;102497.34;5055368;28;20048;-36
2023/02/26 09:17:11;;;;;;;5.50;1.37;;;;;;;1.33;79.77;102500.31;5055305;28;20020;-35
2023/02/26 09:19:36;;;;;;;3.63;0.90;;;;;;;1.46;80.37;102492.94;5055262;28;20082;-36
2023/02/26 09:22:03;;;;;;;3.93;1.20;;;;;;;1.50;79.90;102505.88;5054875;28;20020;-35
2023/02/26 09:24:29;;;;;;;4.38;1.08;;;;;;;1.60;79.80;102505.09;5055717;28;20028;-35
2023/02/26 09:26:54;;;;;;;7.60;1.50;;;;;;;1.58;79.39;102496.38;5055045;28;20101;-36
2023/02/26 09:29:19;;;;;;;2.00;0.80;;;;;;;1.78;80.78;102515.03;5054887;28;20047;-36
2023/02/26 09:31:45;;;;;;;2.43;0.90;;;;;;;1.85;78.43;102501.97;5054790;28;20142;-35
2023/02/26 09:34:11;;;;;;;3.60;1.00;;;;;;;2.06;78.91;102513.47;5055858;28;20025;-35
2023/02/26 09:36:37;;;;;;;;;;;;;;;2.21;78.85;102521.09;5055263;28;20028;-36
2023/02/26 09:39:03;;;;;;;2.03;0.90;;;;;;;2.04;74.01;102482.53;5054877;28;19905;-35
2023/02/26 09:41:53;;;;;;;1.70;0.80;;;;;;;2.38;73.96;102519.59;5055012;28;20032;-35
2023/02/26 09:44:26;;;;;;;3.25;0.70;;;;;;;2.41;74.63;102514.84;5052277;28;20275;-35
2023/02/26 09:46:59;;;;;;;3.53;0.95;;;;;;;2.42;73.38;102529.03;5054430;28;20028;-35
2023/02/26 09:49:30;;;;;;;2.00;0.70;;;;;;;2.48;73.08;102534.66;5054695;28;20021;-36
2023/02/26 09:52:30;;;;;;;4.13;0.90;;;;;;;2.69;71.73;102537.25;5054683;28;20484;-36
2023/02/26 09:55:04;;;;;;;3.92;0.85;;;;;;;2.83;71.05;102530.66;5055160;28;20381;-35
2023/02/26 09:57:35;;;;;;;2.25;0.80;;;;;;;2.84;70.55;102538.53;5054749;28;20024;-35
2023/02/26 10:00:15;;;;;;;2.88;1.00;;;;;;;2.89;70.64;102553.31;5054764;28;20044;-36
2023/02/26 10:03:05;;;;;;;4.00;0.90;;;;;;;2.98;68.13;102549.81;5054309;28;20040;-35
2023/02/26 10:05:42;;;;;;;2.65;0.77;;;;;;;3.09;68.56;102565.72;5054656;28;20083;-35
2023/02/26 10:08:14;;;;;;;2.00;0.70;;;;;;;2.94;66.27;102559.09;5054227;28;20021;-35
2023/02/26 10:11:13;;;;;;;2.28;0.73;;;;;;;3.20;67.28;102573.59;5054062;28;20021;-35
2023/02/26 10:13:51;;;;;;;3.13;0.80;;;;;;;3.16;66.38;102576.69;5054673;28;20024;-35
2023/02/26 10:16:24;;;;;;;2.65;0.70;;;;;;;3.16;66.61;102566.81;5054128;28;20033;-35
2023/02/26 10:18:54;;;;;;;4.38;1.02;;;;;;;3.13;67.12;102568.97;5054951;28;20384;-36
2023/02/26 10:21:27;;;;;;;2.70;0.70;;;;;;;3.38;66.54;102571.06;5054032;28;20127;-36
2023/02/26 10:23:56;;;;;;;1.45;0.52;;;;;;;3.43;65.27;102567.97;5054040;28;20021;-36
2023/02/26 10:26:36;;;;;;;1.60;0.70;;;;;;;3.27;65.33;102564.03;5054331;28;20025;-36
2023/02/26 10:29:06;;;;;;;2.42;0.63;;;;;;;3.08;61.93;102558.69;5054015;28;20025;-36
2023/02/26 10:31:55;;;;;;;3.67;0.70;;;;;;;3.16;61.18;102571.34;5053626;28;20021;-36
2023/02/26 10:34:27;;;;;;;3.05;0.90;;;;;;;3.27;62.06;102572.06;5054180;28;20036;-36
2023/02/26 10:36:55;;;;;;;3.38;0.80;;;;;;;3.16;60.72;102574.00;5054996;28;20033;-36
2023/02/26 10:39:41;;;;;;;2.70;0.60;;;;;;;3.11;60.77;102574.44;5053787;28;20051;-35
2023/02/26 10:42:16;;;;;;;2.45;0.80;;;;;;;3.11;61.07;102574.44;5042711;28;20047;-35
2023/02/26 10:45:23;;;;;;;2.15;0.63;;;;;;;3.33;61.80;102581.34;5054344;28;20158;-35
2023/02/26 10:48:03;;;;;;;1.67;0.50;;;;;;;3.16;58.99;102582.88;5043482;28;20044;-35
2023/02/26 10:50:30;;;;;;;4.15;0.80;;;;;;;3.28;61.47;102573.75;5053134;28;20036;-35
2023/02/26 10:52:56;;;;;;;1.95;0.65;;;;;;;3.13;59.33;102588.50;5053645;28;20419;-36
2023/02/26 10:55:40;;;;;;;2.53;0.82;;;;;;;3.09;58.77;102587.09;5054247;28;20445;-35
2023/02/26 10:58:13;;;;;;;1.67;0.60;;;;;;;3.21;57.99;102585.13;5053369;28;20100;-35
2023/02/26 11:00:44;;;;;;;2.33;0.60;;;;;;;3.33;58.38;102579.50;5053292;28;20100;-35
2023/02/26 11:03:20;;;;;;;2.08;0.55;;;;;;;3.45;58.81;102582.88;5054075;28;20044;-36
2023/02/26 11:05:47;;;;;;;2.10;0.70;;;;;;;3.45;57.17;102576.69;5053895;28;20025;-35
2023/02/26 11:08:19;;;;;;;3.28;0.80;;;;;;;3.39;56.99;102578.09;5053195;28;20024;-35
2023/02/26 11:10:52;;;;;;;2.67;0.80;;;;;;;3.56;58.65;102589.91;5053826;28;20078;-36
2023/02/26 11:13:20;;;;;;;1.27;0.50;;;;;;;3.68;59.36;102577.22;5053128;28;20028;-36
2023/02/26 11:15:50;;;;;;;1.92;0.70;;;;;;;3.83;57.95;102586.50;5053717;28;20017;-35
2023/02/26 11:18:20;;;;;;;1.98;0.52;;;;;;;3.90;56.83;102592.09;5053325;28;20021;-36
2023/02/26 11:20:47;;;;;;;1.77;0.60;;;;;;;4.01;56.82;102594.63;5053194;28;20444;-37
2023/02/26 11:23:17;;;;;;;0.93;0.50;;;;;;;3.95;57.14;102589.81;5052954;28;20021;-35
2023/02/26 11:25:43;;;;;;;1.23;0.55;;;;;;;4.11;56.27;102590.94;5053122;28;20085;-35
2023/02/26 11:28:29;;;;;;;;;;;;;;;3.95;54.80;102592.50;5053361;28;20039;-35
2023/02/26 11:30:56;;;;;;;2.30;0.45;;;;;;;4.03;55.38;102587.28;5054241;28;19905;-35
2023/02/26 11:33:35;;;;;;;3.25;0.68;;;;;;;3.92;54.38;102584.78;5053536;28;20101;-36
2023/02/26 11:36:06;;;;;;;1.13;0.50;;;;;;;3.85;55.43;102585.34;5052926;28;20086;-35
2023/02/26 11:38:32;;;;;;;2.38;0.70;;;;;;;3.85;54.30;102595.19;5053151;28;20051;-35
2023/02/26 11:41:01;;;;;;;2.13;0.70;;;;;;;3.87;55.52;102570.00;5053178;28;20059;-35
2023/02/26 11:43:35;;;;;;;1.60;0.50;;;;;;;4.07;55.24;102577.97;5053117;28;20025;-35